Time;durP1;ratioP1;P1;durP2;ratioP2;P2;SDS_P1;SDS_P2;PMS_P1;PMS_P2;Temp;Humidity;BMP_temperature;BMP_pressure;BME280_temperature;BME280_humidity;BME280_pressure;Samples;Min_cycle;Max_cycle;Signal;HPM_P1;HPM_P2
2022/05/31 00:02:10;;;;;;;12.93;3.50;;;;;;;18.84;40.99;101092.13;5093126;28;20024;-75
2022/05/31 00:04:36;;;;;;;9.07;3.33;;;;;;;18.79;41.01;101088.81;5092955;28;20031;-76
2022/05/31 00:07:02;;;;;;;6.72;2.58;;;;;;;18.80;40.82;101084.88;5092994;28;20020;-75
2022/05/31 00:09:28;;;;;;;9.77;2.97;;;;;;;18.71;40.91;101082.31;5087170;28;20024;-75
2022/05/31 00:11:55;;;;;;;5.25;3.13;;;;;;;18.72;40.98;101074.81;5072641;28;20395;-75
2022/05/31 00:14:21;;;;;;;5.15;2.88;;;;;;;18.71;40.91;101082.31;5072479;28;20554;-75
2022/05/31 00:16:47;;;;;;;6.00;2.88;;;;;;;18.70;41.05;101086.25;5072498;28;20082;-75
2022/05/31 00:19:14;;;;;;;6.72;2.83;;;;;;;18.72;40.98;101078.38;5072083;28;20126;-75
2022/05/31 00:21:45;;;;;;;5.65;2.90;;;;;;;18.71;41.13;101073.22;5072405;28;20020;-75
2022/05/31 00:24:15;;;;;;;7.15;3.42;;;;;;;18.73;40.84;101082.75;5072214;28;20029;-75
2022/05/31 00:26:41;;;;;;;7.05;3.17;;;;;;;18.70;40.86;101079.91;5071915;28;20045;-75
2022/05/31 00:29:09;;;;;;;6.20;3.20;;;;;;;18.70;40.87;101072.41;5072308;28;20033;-75
2022/05/31 00:31:36;;;;;;;5.28;3.10;;;;;;;18.70;41.13;101068.84;5072307;28;20032;-75
2022/05/31 00:34:02;;;;;;;7.25;2.85;;;;;;;18.72;40.86;101077.59;5071765;28;20040;-75
2022/05/31 00:36:29;;;;;;;7.13;2.92;;;;;;;18.74;40.96;101075.25;5071504;28;20020;-75
2022/05/31 00:38:55;;;;;;;6.50;3.15;;;;;;;18.67;40.85;101080.66;5071948;28;20103;-75
2022/05/31 00:41:24;;;;;;;8.07;2.95;;;;;;;18.57;40.97;101070.88;5071585;28;20021;-75
2022/05/31 00:44:06;;;;;;;5.57;3.47;;;;;;;18.45;40.99;101079.28;5072018;28;20490;-75
2022/05/31 00:46:51;;;;;;;4.82;3.30;;;;;;;18.40;41.10;101083.13;5077148;28;20051;-75
2022/05/31 00:49:34;;;;;;;5.32;2.35;;;;;;;18.31;41.09;101079.75;5092304;28;20024;-76
2022/05/31 00:52:07;;;;;;;10.95;3.83;;;;;;;18.22;41.23;101082.69;5092190;28;20102;-75
2022/05/31 00:54:36;;;;;;;7.15;3.03;;;;;;;18.14;41.44;101075.38;5092181;28;20494;-75
2022/05/31 00:57:02;;;;;;;4.65;2.88;;;;;;;18.15;41.46;101073.41;5091777;28;20089;-75
2022/05/31 00:59:39;;;;;;;6.50;2.97;;;;;;;18.08;41.55;101071.25;5080307;28;20507;-75
2022/05/31 01:02:06;;;;;;;8.25;2.72;;;;;;;18.06;41.21;101072.75;5070601;28;20028;-75
2022/05/31 01:04:38;;;;;;;12.68;3.10;;;;;;;18.00;41.21;101075.00;5071810;28;20025;-75
2022/05/31 01:07:05;;;;;;;7.57;2.75;;;;;;;17.96;41.26;101074.09;5071902;28;20021;-75
2022/05/31 01:09:31;;;;;;;6.57;2.40;;;;;;;17.87;41.22;101070.69;5071775;28;20024;-75
2022/05/31 01:11:57;;;;;;;8.88;2.95;;;;;;;17.93;41.05;101075.63;5071730;28;20502;-75
2022/05/31 01:14:25;;;;;;;7.82;3.10;;;;;;;17.80;41.32;101071.31;5071661;28;20528;-75
2022/05/31 01:17:05;;;;;;;4.90;2.42;;;;;;;17.77;41.36;101065.69;5071569;28;20103;-74
2022/05/31 01:22:18;;;;;;;3.75;2.30;;;;;;;17.77;41.21;101071.22;5071730;28;20036;-75
2022/05/31 01:25:02;;;;;;;6.38;2.75;;;;;;;17.74;41.26;101081.81;5071608;28;20025;-77
2022/05/31 01:28:16;;;;;;;4.10;2.65;;;;;;;17.70;41.37;101078.16;5071293;28;20044;-75
2022/05/31 01:30:46;;;;;;;6.68;2.55;;;;;;;17.70;41.24;101080.91;5071637;28;20040;-75
2022/05/31 01:33:18;;;;;;;;;;;;;;;17.59;41.45;101076.22;5071771;28;20029;-75
2022/05/31 01:35:44;;;;;;;6.72;2.63;;;;;;;17.56;41.29;101082.44;5070217;28;20306;-75
2022/05/31 01:38:24;;;;;;;9.45;2.53;;;;;;;17.43;41.46;101076.97;5071422;28;20111;-75
2022/05/31 01:41:04;;;;;;;6.63;2.50;;;;;;;17.40;41.63;101079.63;5071435;28;20060;-75
2022/05/31 01:43:30;;;;;;;8.52;3.20;;;;;;;17.37;41.31;101080.31;5071024;28;20130;-75
2022/05/31 01:46:06;;;;;;;5.20;2.97;;;;;;;17.31;41.52;101078.97;5070596;28;20491;-75
2022/05/31 01:48:35;;;;;;;5.57;2.55;;;;;;;17.27;41.51;101072.53;5078808;28;20035;-75
2022/05/31 01:51:01;;;;;;;8.27;2.58;;;;;;;17.30;41.60;101083.69;5091589;28;20028;-76
2022/05/31 01:53:28;;;;;;;4.80;2.55;;;;;;;17.27;41.35;101083.59;5076752;28;20036;-75
2022/05/31 01:55:54;;;;;;;4.15;2.63;;;;;;;17.24;41.81;101081.53;5071301;28;20052;-75
2022/05/31 01:58:23;;;;;;;8.38;2.80;;;;;;;17.18;41.72;101090.06;5071290;28;20027;-75
2022/05/31 02:00:50;;;;;;;4.38;2.90;;;;;;;17.23;41.29;101080.72;5069939;28;20481;-75
2022/05/31 02:03:17;;;;;;;5.13;3.20;;;;;;;17.16;41.46;101081.31;5071277;28;20035;-75
2022/05/31 02:05:46;;;;;;;6.28;3.20;;;;;;;17.19;41.55;101086.13;5086817;28;20086;-75
2022/05/31 02:08:11;;;;;;;6.53;3.20;;;;;;;17.16;41.37;101075.81;5091753;28;20023;-75
2022/05/31 02:10:39;;;;;;;5.43;3.85;;;;;;;17.12;41.62;101083.16;5095186;28;20105;-75
2022/05/31 02:13:05;;;;;;;6.72;3.40;;;;;;;17.05;41.38;101077.41;5095198;28;20491;-75
2022/05/31 02:15:31;;;;;;;10.40;3.47;;;;;;;16.99;41.73;101086.28;5095299;28;20028;-75
2022/05/31 02:17:56;;;;;;;7.03;3.83;;;;;;;16.99;41.74;101081.56;5095050;28;20440;-75
2022/05/31 02:20:22;;;;;;;6.82;3.22;;;;;;;17.01;41.51;101087.56;5094950;28;20028;-75
2022/05/31 02:22:47;;;;;;;6.13;3.70;;;;;;;17.04;41.68;101091.59;5355565;22;20663;-76
2022/05/31 02:25:13;;;;;;;9.85;4.25;;;;;;;17.03;41.48;101093.53;5098246;28;20538;-75
2022/05/31 02:27:39;;;;;;;9.32;3.55;;;;;;;16.97;41.61;101094.94;5097540;28;20027;-75
2022/05/31 02:30:06;;;;;;;5.60;3.17;;;;;;;16.98;41.47;101099.28;5086650;28;20028;-74
2022/05/31 02:32:33;;;;;;;5.40;3.30;;;;;;;16.95;41.61;101096.44;5095485;28;20093;-75
2022/05/31 02:34:58;;;;;;;9.85;4.10;;;;;;;16.97;41.40;101094.94;5095509;28;20047;-75
2022/05/31 02:37:24;;;;;;;10.30;3.65;;;;;;;16.87;41.38;101095.41;5095334;28;20457;-74
2022/05/31 02:39:50;;;;;;;9.38;3.95;;;;;;;16.82;41.69;101093.69;5095257;28;20035;-74
2022/05/31 02:42:17;;;;;;;4.68;3.20;;;;;;;16.76;41.66;101091.50;5087885;28;20077;-74
2022/05/31 02:44:42;;;;;;;5.30;2.90;;;;;;;16.85;41.54;101086.66;5097285;28;20438;-75
2022/05/31 02:47:08;;;;;;;5.78;3.33;;;;;;;16.79;41.49;101090.81;5115643;28;20095;-75
2022/05/31 02:49:39;;;;;;;9.10;3.08;;;;;;;16.76;41.45;101097.00;5096560;28;20028;-75
2022/05/31 02:52:06;;;;;;;5.95;3.58;;;;;;;16.78;41.48;101098.28;5076937;28;20108;-75
2022/05/31 02:54:31;;;;;;;4.47;3.13;;;;;;;16.67;41.60;101096.31;5094852;28;20032;-75
2022/05/31 02:56:57;;;;;;;7.90;3.65;;;;;;;16.61;41.57;101096.53;5076658;28;20393;-75
2022/05/31 02:59:23;;;;;;;7.38;3.30;;;;;;;16.54;41.75;101099.03;5094611;28;20375;-75
2022/05/31 03:01:50;;;;;;;7.93;3.45;;;;;;;16.45;41.81;101105.84;5094710;28;20588;-75
2022/05/31 03:04:16;;;;;;;5.05;3.35;;;;;;;16.35;41.71;101107.91;5094873;28;20375;-74
2022/05/31 03:06:42;;;;;;;6.18;3.22;;;;;;;16.34;41.69;101106.28;5094539;28;20032;-75
2022/05/31 03:09:08;;;;;;;7.93;3.55;;;;;;;16.31;41.67;101100.66;5094397;28;20038;-74
2022/05/31 03:11:44;;;;;;;7.97;3.58;;;;;;;16.25;41.72;101102.84;5087191;28;20032;-74
2022/05/31 03:14:29;;;;;;;5.03;2.80;;;;;;;16.23;41.92;101096.84;5115077;28;20024;-74
2022/05/31 03:17:06;;;;;;;7.65;3.45;;;;;;;16.20;41.97;101094.78;5074473;28;20292;-75
2022/05/31 03:19:38;;;;;;;7.63;3.08;;;;;;;16.18;42.11;101097.09;5073984;28;20052;-75
2022/05/31 03:22:11;;;;;;;7.85;3.00;;;;;;;16.26;42.07;101095.38;5074266;28;20034;-75
2022/05/31 03:24:45;;;;;;;7.22;2.90;;;;;;;16.14;42.55;101104.41;5074065;28;20086;-75
2022/05/31 03:27:12;;;;;;;8.25;2.55;;;;;;;16.27;41.87;101094.22;5085298;28;20024;-75
2022/05/31 03:29:42;;;;;;;7.72;2.45;;;;;;;16.29;41.74;101100.19;5114738;28;20051;-76
2022/05/31 03:32:09;;;;;;;10.30;3.45;;;;;;;16.32;41.65;101086.53;5110857;28;20135;-75
2022/05/31 03:34:34;;;;;;;12.27;3.10;;;;;;;16.33;41.97;101092.84;5073868;28;20021;-74
2022/05/31 03:37:00;;;;;;;7.97;2.63;;;;;;;16.37;41.74;101096.53;5073990;28;20031;-75
2022/05/31 03:39:25;;;;;;;8.77;3.22;;;;;;;16.39;41.90;101088.69;5072535;28;20074;-75
2022/05/31 03:41:51;;;;;;;8.48;3.15;;;;;;;16.36;41.88;101084.69;5073919;28;20024;-75
2022/05/31 03:44:16;;;;;;;5.85;3.03;;;;;;;16.34;41.82;101086.19;5073869;28;20024;-75
2022/05/31 03:46:42;;;;;;;6.93;3.20;;;;;;;16.29;41.88;101091.91;5073893;28;20360;-74
2022/05/31 03:49:09;;;;;;;6.28;2.58;;;;;;;16.27;42.11;101094.22;5073735;28;20058;-74
2022/05/31 03:51:34;;;;;;;6.18;2.80;;;;;;;16.35;41.89;101093.31;5073581;28;20032;-75
2022/05/31 03:54:00;;;;;;;4.53;3.15;;;;;;;16.42;41.64;101104.56;5073621;28;20040;-75
2022/05/31 03:56:25;;;;;;;13.95;3.85;;;;;;;16.39;41.66;101096.97;5073554;28;20017;-75
2022/05/31 03:58:51;;;;;;;9.15;3.55;;;;;;;16.35;41.78;101096.88;5073601;28;20104;-75
2022/05/31 04:01:17;;;;;;;5.43;3.38;;;;;;;16.34;41.94;101108.25;5073464;28;20025;-74
2022/05/31 04:03:42;;;;;;;10.85;3.75;;;;;;;16.29;41.96;101102.94;5084340;28;20020;-75
2022/05/31 04:06:08;;;;;;;13.93;4.30;;;;;;;16.25;42.46;101102.84;5095722;28;20019;-74
2022/05/31 04:08:33;;;;;;;4.13;2.63;;;;;;;16.31;42.22;101100.66;5113915;28;20438;-75
2022/05/31 04:10:59;;;;;;;9.18;3.83;;;;;;;16.29;42.23;101102.94;5091354;28;20038;-75
2022/05/31 04:13:26;;;;;;;8.75;3.33;;;;;;;16.27;42.29;101106.06;5093049;28;20024;-75
2022/05/31 04:16:05;;;;;;;7.63;3.38;;;;;;;16.30;42.36;101099.84;5075240;28;20073;-75
2022/05/31 04:18:31;;;;;;;13.15;3.90;;;;;;;16.32;42.40;101094.81;5075032;28;20501;-75
2022/05/31 04:21:06;;;;;;;8.80;3.17;;;;;;;16.27;42.46;101096.97;5093140;28;20028;-74
2022/05/31 04:26:16;;;;;;;10.05;3.83;;;;;;;16.33;42.24;101088.16;5103348;28;20085;-75
2022/05/31 04:28:42;;;;;;;6.22;3.20;;;;;;;16.40;42.32;101093.09;5102985;28;20038;-75
2022/05/31 04:31:08;;;;;;;10.95;3.40;;;;;;;16.43;41.94;101097.91;5112579;28;20027;-74
2022/05/31 04:33:34;;;;;;;4.50;2.80;;;;;;;16.36;41.99;101098.47;5113510;28;20035;-74
2022/05/31 04:36:06;;;;;;;4.93;3.05;;;;;;;16.39;42.12;101094.22;5113524;28;20147;-75
2022/05/31 04:38:33;;;;;;;6.28;3.10;;;;;;;16.45;42.02;101100.31;5095151;28;20039;-75
2022/05/31 04:40:58;;;;;;;10.23;3.63;;;;;;;16.42;41.92;101103.78;5101762;28;20032;-75
2022/05/31 04:43:24;;;;;;;8.95;3.78;;;;;;;16.48;41.93;101105.97;5092961;28;20024;-75
2022/05/31 04:45:50;;;;;;;7.00;3.53;;;;;;;16.47;42.09;101101.56;5074938;28;20032;-75
2022/05/31 04:48:16;;;;;;;19.25;4.40;;;;;;;16.41;42.31;101105.72;5074773;28;20101;-75
2022/05/31 04:50:41;;;;;;;4.90;3.00;;;;;;;16.57;42.48;101109.41;5074802;28;20498;-75
2022/05/31 04:53:07;;;;;;;11.13;3.53;;;;;;;16.63;41.80;101102.53;5091817;28;20024;-74
2022/05/31 04:55:33;;;;;;;8.98;3.38;;;;;;;16.67;41.88;101101.81;5091209;28;20050;-75
2022/05/31 04:57:59;;;;;;;6.40;2.30;;;;;;;16.87;41.56;101111.97;5092773;28;20028;-75
2022/05/31 05:00:24;;;;;;;5.15;3.40;;;;;;;16.96;41.41;101112.66;5092693;28;20032;-75
2022/05/31 05:02:50;;;;;;;6.57;3.35;;;;;;;16.83;42.16;101113.78;5091943;28;20393;-76
2022/05/31 05:05:16;;;;;;;6.35;3.00;;;;;;;17.01;41.52;101108.84;5092363;28;20527;-75
2022/05/31 05:07:42;;;;;;;8.52;3.20;;;;;;;17.09;41.60;101105.16;5091782;28;20024;-75
2022/05/31 05:10:09;;;;;;;8.63;3.22;;;;;;;17.18;41.63;101106.63;5092273;28;20032;-75
2022/05/31 05:12:35;;;;;;;6.38;3.08;;;;;;;17.26;41.61;101115.94;5092218;28;20032;-75
2022/05/31 05:15:02;;;;;;;9.88;3.63;;;;;;;17.22;41.86;101084.63;5092445;28;20035;-76
2022/05/31 05:17:28;;;;;;;7.05;2.83;;;;;;;17.25;42.02;101110.75;5092508;28;20085;-75
2022/05/31 05:19:53;;;;;;;8.23;3.03;;;;;;;17.26;42.07;101115.94;5074140;28;20028;-75
2022/05/31 05:22:19;;;;;;;11.98;2.97;;;;;;;17.43;41.89;101128.66;5092091;28;20492;-75
2022/05/31 05:24:45;;;;;;;9.48;2.75;;;;;;;17.59;42.02;101126.75;5053732;28;20049;-75
2022/05/31 05:27:10;;;;;;;4.55;2.47;;;;;;;17.64;41.90;101125.69;5051703;28;20040;-75
2022/05/31 05:32:20;;;;;;;9.52;2.65;;;;;;;17.90;41.55;101133.56;5052238;28;20044;-76
2022/05/31 05:34:52;;;;;;;12.55;4.15;;;;;;;17.85;41.67;101122.78;5052090;28;20021;-75
2022/05/31 05:37:19;;;;;;;5.90;2.45;;;;;;;17.81;42.03;101128.19;5052164;28;20044;-75
2022/05/31 05:39:47;;;;;;;11.13;2.63;;;;;;;17.92;42.08;101120.22;5050458;28;20104;-75
2022/05/31 05:42:14;;;;;;;8.90;2.42;;;;;;;17.95;42.53;101127.78;5051280;28;20017;-76
2022/05/31 05:44:40;;;;;;;11.02;2.40;;;;;;;17.73;43.30;101129.94;5055539;28;20554;-76
2022/05/31 05:47:14;;;;;;;12.23;3.17;;;;;;;18.17;42.37;101127.19;5056212;28;20105;-76
2022/05/31 05:49:40;;;;;;;8.43;2.50;;;;;;;18.23;42.63;101133.28;5056037;28;20021;-76
2022/05/31 05:52:08;;;;;;;9.45;2.45;;;;;;;18.41;42.52;101134.53;5055746;28;20115;-76
2022/05/31 05:54:34;;;;;;;6.47;2.38;;;;;;;18.69;42.13;101137.25;5055896;28;20053;-76
2022/05/31 05:57:01;;;;;;;8.05;2.55;;;;;;;18.83;42.32;101145.91;5055938;28;20060;-76
2022/05/31 05:59:26;;;;;;;7.55;2.67;;;;;;;19.03;42.15;101145.94;5055693;28;20518;-76
2022/05/31 06:02:23;;;;;;;6.70;2.53;;;;;;;19.03;42.04;101141.19;5055859;28;20052;-76
2022/05/31 06:04:55;;;;;;;15.32;2.70;;;;;;;19.07;41.69;101150.41;5055023;28;20434;-76
2022/05/31 06:07:28;;;;;;;7.25;2.50;;;;;;;18.90;41.76;101150.00;5055684;28;20025;-78
2022/05/31 06:10:20;;;;;;;8.77;2.78;;;;;;;18.93;41.87;101150.06;5055579;28;20343;-74
2022/05/31 06:12:54;;;;;;;7.80;2.80;;;;;;;18.78;42.07;101159.19;5053705;28;20058;-77
2022/05/31 06:15:25;;;;;;;7.57;2.60;;;;;;;18.97;41.87;101161.25;5055481;28;20510;-75
2022/05/31 06:17:53;;;;;;;6.50;2.47;;;;;;;19.10;41.53;101162.72;5055352;28;20060;-75
2022/05/31 06:20:20;;;;;;;5.60;2.40;;;;;;;19.28;41.68;101155.63;5055427;28;20100;-75
2022/05/31 06:22:46;;;;;;;7.30;2.60;;;;;;;19.47;41.54;101156.81;5055414;28;20036;-75
2022/05/31 06:25:15;;;;;;;8.32;3.03;;;;;;;19.52;41.16;101164.84;5095459;28;20043;-75
2022/05/31 06:27:41;;;;;;;5.28;2.35;;;;;;;19.56;41.29;101160.16;5095226;28;20020;-75
2022/05/31 06:30:07;;;;;;;9.90;2.30;;;;;;;19.50;41.41;101156.91;5095645;28;20035;-75
2022/05/31 06:32:33;;;;;;;7.20;2.33;;;;;;;19.51;41.05;101154.94;5095468;28;20065;-75
2022/05/31 06:34:58;;;;;;;10.45;3.13;;;;;;;19.45;41.38;101167.47;5095428;28;20028;-76
2022/05/31 06:37:24;;;;;;;9.75;2.67;;;;;;;19.61;41.03;101165.47;5095379;28;20024;-76
2022/05/31 06:39:50;;;;;;;7.20;2.45;;;;;;;19.71;41.05;101164.88;5095234;28;20383;-76
2022/05/31 06:42:15;;;;;;;5.68;2.47;;;;;;;19.63;40.95;101161.16;5095332;28;20055;-76
2022/05/31 06:44:43;;;;;;;10.45;2.40;;;;;;;19.72;40.88;101160.94;5095248;28;20027;-76
2022/05/31 06:47:10;;;;;;;8.70;2.47;;;;;;;19.70;41.08;101168.81;5095519;28;20027;-75
2022/05/31 06:49:37;;;;;;;10.23;2.60;;;;;;;19.83;40.78;101164.75;5094872;28;20482;-75
2022/05/31 06:57:36;;;;;;;8.23;2.45;;;;;;;19.98;40.66;101181.66;5094953;28;20402;-76
2022/05/31 07:00:06;;;;;;;6.80;3.13;;;;;;;19.99;40.57;101180.50;5094028;28;20036;-76
2022/05/31 07:02:32;;;;;;;;;;;;;;;19.96;40.69;101184.81;5076052;28;20028;-76
2022/05/31 07:04:58;;;;;;;6.10;2.70;;;;;;;19.91;40.73;101191.44;5076515;28;20441;-75
2022/05/31 07:07:23;;;;;;;13.90;4.18;;;;;;;19.98;40.54;101192.75;5090930;28;20047;-76
2022/05/31 07:09:49;;;;;;;6.90;2.65;;;;;;;20.00;40.54;101193.19;5092460;28;20040;-76
2022/05/31 07:12:15;;;;;;;10.13;3.45;;;;;;;20.09;40.28;101202.06;5093900;28;20386;-76
2022/05/31 07:14:41;;;;;;;9.75;2.58;;;;;;;20.16;40.43;101213.31;5094156;28;20021;-76
2022/05/31 07:17:08;;;;;;;6.82;2.78;;;;;;;20.11;40.45;101197.00;5075864;28;20474;-76
2022/05/31 07:19:33;;;;;;;8.88;2.83;;;;;;;20.25;40.39;101202.78;5075398;28;20057;-79
2022/05/31 07:22:00;;;;;;;7.07;2.60;;;;;;;20.29;40.39;101206.44;5093584;28;20024;-74
2022/05/31 07:24:27;;;;;;;5.55;1.80;;;;;;;20.40;40.24;101210.22;5074217;28;20195;-74
2022/05/31 07:26:52;;;;;;;11.30;2.90;;;;;;;20.58;40.04;101205.03;5054204;28;20025;-74
2022/05/31 07:29:18;;;;;;;6.82;2.72;;;;;;;20.52;40.47;101206.50;5052950;28;20467;-74
2022/05/31 07:31:44;;;;;;;6.57;2.20;;;;;;;20.81;40.08;101204.22;5054182;28;20025;-75
2022/05/31 07:34:14;;;;;;;7.72;2.65;;;;;;;20.80;39.82;101194.28;5052703;28;20032;-75
2022/05/31 07:36:40;;;;;;;;;;;;;;;20.79;39.93;101207.38;5053465;28;20029;-75
2022/05/31 07:39:09;;;;;;;7.55;2.67;;;;;;;20.82;39.88;101205.81;5053430;28;19919;-75
2022/05/31 07:41:35;;;;;;;5.88;2.60;;;;;;;20.91;39.85;101204.38;5052591;28;20407;-75
2022/05/31 07:44:01;;;;;;;9.25;3.25;;;;;;;21.08;39.68;101200.28;5053991;28;20033;-75
2022/05/31 07:46:29;;;;;;;4.88;1.98;;;;;;;21.14;39.66;101203.53;5053714;28;20025;-76
2022/05/31 07:48:56;;;;;;;10.23;2.53;;;;;;;21.27;39.40;101197.44;5052483;28;20025;-75
2022/05/31 07:51:22;;;;;;;9.77;2.72;;;;;;;21.11;39.69;101190.41;5053777;28;20024;-75
2022/05/31 07:53:47;;;;;;;6.65;2.15;;;;;;;21.30;39.55;101195.88;5053683;28;20025;-76
2022/05/31 07:56:13;;;;;;;3.78;1.85;;;;;;;21.41;39.53;101199.63;5052394;28;20076;-75
2022/05/31 07:58:42;;;;;;;4.47;2.67;;;;;;;21.10;40.11;101197.16;5053610;28;20435;-75
2022/05/31 08:01:10;;;;;;;7.57;1.90;;;;;;;21.48;39.39;101196.94;5052294;28;20037;-75
2022/05/31 08:03:40;;;;;;;6.22;2.00;;;;;;;21.71;39.04;101187.72;5053532;28;20111;-76
2022/05/31 08:06:09;;;;;;;5.45;2.15;;;;;;;21.65;39.32;101183.66;5053781;28;20037;-76
2022/05/31 08:08:36;;;;;;;8.65;3.03;;;;;;;21.81;39.34;101185.06;5055861;28;20035;-76
2022/05/31 08:11:07;;;;;;;4.85;1.67;;;;;;;21.86;39.61;101192.28;5056274;28;20040;-76
2022/05/31 08:13:33;;;;;;;4.70;1.77;;;;;;;21.95;39.24;101189.19;5057740;28;20039;-76
2022/05/31 08:15:59;;;;;;;7.97;1.92;;;;;;;22.04;38.87;101193.28;5055366;28;20021;-76
2022/05/31 08:18:25;;;;;;;5.97;2.35;;;;;;;22.26;38.63;101188.78;5053218;28;20108;-76
2022/05/31 08:20:58;;;;;;;6.85;2.33;;;;;;;22.09;37.94;101186.59;5053231;28;20107;-75
2022/05/31 08:23:24;;;;;;;7.65;1.85;;;;;;;22.17;37.89;101187.47;5063223;28;20047;-75
2022/05/31 08:25:49;;;;;;;5.80;2.30;;;;;;;22.37;37.13;101188.91;5093544;28;20020;-76
2022/05/31 08:28:15;;;;;;;11.02;2.80;;;;;;;22.52;37.22;101187.84;5095336;28;20015;-76
2022/05/31 08:30:40;;;;;;;6.70;2.13;;;;;;;22.55;37.06;101197.41;5094783;28;20032;-76
2022/05/31 08:33:06;;;;;;;10.77;2.70;;;;;;;22.54;36.94;101195.81;5092942;28;20077;-76
2022/05/31 08:35:32;;;;;;;4.22;1.58;;;;;;;22.44;37.31;101188.94;5074950;28;20028;-76
2022/05/31 08:37:57;;;;;;;10.93;3.08;;;;;;;22.79;36.70;101184.88;5093104;28;20028;-75
2022/05/31 08:40:23;;;;;;;4.53;1.67;;;;;;;22.92;36.52;101177.88;5091322;28;20499;-75
2022/05/31 08:42:52;;;;;;;6.57;1.80;;;;;;;23.00;36.45;101187.06;5091696;28;20433;-75
2022/05/31 08:45:35;;;;;;;9.55;2.58;;;;;;;23.02;36.86;101181.91;5092994;28;20016;-75
2022/05/31 08:48:05;;;;;;;8.05;2.08;;;;;;;23.00;36.28;101182.31;5092976;28;20486;-75
2022/05/31 08:56:57;;;;;;;2.30;1.45;;;;;;;23.47;35.68;101188.97;5092867;28;20127;-75
2022/05/31 08:59:57;;;;;;;9.30;2.30;;;;;;;23.84;34.96;101180.41;5092799;28;20031;-75
2022/05/31 09:02:29;;;;;;;5.32;2.30;;;;;;;24.09;34.78;101191.63;5090084;28;20081;-75
2022/05/31 09:05:03;;;;;;;6.10;1.85;;;;;;;24.09;34.82;101191.63;5090940;28;20139;-75
2022/05/31 09:07:51;;;;;;;3.67;1.58;;;;;;;24.27;34.35;101189.69;5089585;28;20548;-76
2022/05/31 09:10:29;;;;;;;4.57;1.55;;;;;;;24.15;33.80;101194.84;5089245;28;20080;-76
2022/05/31 09:12:57;;;;;;;6.97;2.28;;;;;;;24.07;34.13;101180.88;5072781;28;20043;-75
2022/05/31 09:15:47;;;;;;;3.10;1.42;;;;;;;24.02;33.30;101184.03;5090712;28;20059;-76
2022/05/31 09:18:50;;;;;;;4.72;1.95;;;;;;;23.97;33.88;101186.44;5072652;28;20028;-75
2022/05/31 09:21:34;;;;;;;5.20;2.10;;;;;;;23.93;33.38;101186.41;5066085;28;20481;-76
2022/05/31 09:24:00;;;;;;;4.50;1.50;;;;;;;23.86;33.25;101182.78;5092310;28;20043;-76
2022/05/31 09:26:40;;;;;;;3.80;1.58;;;;;;;24.11;33.32;101189.28;5092433;28;20036;-76
2022/05/31 09:29:16;;;;;;;7.28;2.10;;;;;;;24.13;32.96;101183.28;5092564;28;20032;-76
2022/05/31 09:31:58;;;;;;;9.98;2.60;;;;;;;24.29;31.56;101190.09;5092264;28;20111;-76
2022/05/31 09:34:48;;;;;;;5.55;2.28;;;;;;;24.53;32.66;101185.78;5071431;28;20106;-76
2022/05/31 09:37:51;;;;;;;7.22;1.77;;;;;;;24.56;32.54;101185.00;5097282;28;20493;-76
2022/05/31 09:40:48;;;;;;;4.32;1.50;;;;;;;24.75;32.18;101177.41;5096303;28;20056;-76
2022/05/31 09:43:24;;;;;;;5.28;1.65;;;;;;;24.54;31.64;101178.19;5092062;28;20110;-76
2022/05/31 09:46:11;;;;;;;4.47;1.40;;;;;;;24.74;31.58;101178.59;5097295;28;20036;-76
2022/05/31 09:48:49;;;;;;;3.22;1.27;;;;;;;24.72;31.88;101183.81;5094360;28;20035;-76
2022/05/31 09:51:40;;;;;;;3.25;1.35;;;;;;;24.77;30.68;101177.78;5094354;28;20374;-76
2022/05/31 09:57:06;;;;;;;9.10;3.08;;;;;;;24.72;31.67;101181.00;5112626;28;20438;-76
2022/05/31 09:59:35;;;;;;;7.10;1.95;;;;;;;24.73;31.93;101183.41;5112471;28;20027;-76
2022/05/31 10:02:31;;;;;;;2.60;1.50;;;;;;;24.66;31.57;101193.78;5112464;28;20374;-76
2022/05/31 10:05:16;;;;;;;3.03;1.35;;;;;;;24.54;31.60;101175.41;5112448;28;20031;-76
2022/05/31 10:07:43;;;;;;;5.47;1.38;;;;;;;24.37;31.92;101181.75;5112303;28;20016;-76
2022/05/31 10:10:16;;;;;;;8.95;2.35;;;;;;;24.31;31.01;101178.53;5112338;28;20038;-77
2022/05/31 10:12:54;;;;;;;3.55;1.63;;;;;;;24.68;30.50;101181.00;5104646;28;20085;-76
2022/05/31 10:15:44;;;;;;;7.35;2.05;;;;;;;25.00;31.21;101178.16;5090781;28;20052;-76
2022/05/31 10:18:24;;;;;;;3.55;1.58;;;;;;;25.21;31.05;101180.19;5092013;28;20020;-77
2022/05/31 10:21:07;;;;;;;7.78;1.88;;;;;;;25.02;30.32;101180.59;5092070;28;20393;-76
2022/05/31 10:23:39;;;;;;;3.03;0.98;;;;;;;24.99;30.20;101184.16;5091685;28;20048;-76
2022/05/31 10:26:05;;;;;;;3.90;1.67;;;;;;;25.24;30.50;101186.94;5091941;28;20052;-76
2022/05/31 10:28:52;;;;;;;3.47;1.30;;;;;;;25.11;29.75;101184.59;5091917;28;20024;-76
2022/05/31 10:31:37;;;;;;;11.80;2.30;;;;;;;25.16;30.08;101184.19;5095399;28;20020;-76
2022/05/31 10:34:36;;;;;;;4.57;1.30;;;;;;;25.36;29.37;101186.53;5095411;28;20028;-76
2022/05/31 10:37:06;;;;;;;5.82;1.55;;;;;;;25.24;29.20;101192.53;5095387;28;20035;-76
2022/05/31 10:39:36;;;;;;;5.40;1.08;;;;;;;25.38;29.52;101182.13;5128115;27;20412;-76
2022/05/31 10:42:07;;;;;;;2.20;1.17;;;;;;;25.35;29.30;101184.94;5095067;28;20674;-76
2022/05/31 10:44:42;;;;;;;2.72;0.90;;;;;;;25.59;28.98;101180.47;5092179;28;20149;-76
2022/05/31 10:47:12;;;;;;;2.47;0.98;;;;;;;25.86;28.67;101181.59;5092999;28;20032;-76
2022/05/31 10:49:39;;;;;;;1.80;0.90;;;;;;;25.98;28.33;101183.91;5102564;28;20039;-76
2022/05/31 10:52:27;;;;;;;2.80;1.10;;;;;;;25.99;28.56;101185.50;5115252;28;20052;-76
2022/05/31 10:55:07;;;;;;;3.53;0.90;;;;;;;25.86;28.60;101192.78;5115379;28;20485;-76
2022/05/31 10:58:07;;;;;;;3.15;1.02;;;;;;;25.32;28.44;101197.75;5099231;28;20035;-76
2022/05/31 11:00:44;;;;;;;2.40;1.00;;;;;;;25.14;29.15;101196.97;5091695;28;20108;-75
2022/05/31 11:03:31;;;;;;;4.10;1.42;;;;;;;24.88;29.67;101204.56;5094374;28;20024;-76
2022/05/31 11:06:12;;;;;;;3.50;1.00;;;;;;;24.75;30.35;101206.13;5092311;28;20035;-75
2022/05/31 11:11:28;;;;;;;2.92;1.40;;;;;;;25.00;30.04;101199.75;5093016;28;20055;-76
2022/05/31 11:14:12;;;;;;;1.65;0.85;;;;;;;24.86;29.82;101203.34;5091015;28;20028;-76
2022/05/31 11:17:11;;;;;;;2.75;0.80;;;;;;;24.80;30.30;101200.16;5093698;28;20027;-75
2022/05/31 11:19:56;;;;;;;5.22;1.27;;;;;;;24.40;32.29;101220.06;5109160;28;20081;-76
2022/05/31 11:22:35;;;;;;;2.45;1.48;;;;;;;24.54;32.00;101217.28;5072896;28;20446;-76
2022/05/31 11:25:33;;;;;;;6.60;1.70;;;;;;;23.91;33.56;101221.50;5074239;28;20098;-76
2022/05/31 11:28:19;;;;;;;3.03;1.00;;;;;;;24.05;32.87;101218.75;5085714;28;20494;-75
2022/05/31 11:31:03;;;;;;;4.07;1.45;;;;;;;24.18;32.46;101214.41;5074920;28;20110;-75
2022/05/31 11:34:07;;;;;;;7.40;1.50;;;;;;;24.24;32.60;101212.81;5114392;28;20046;-75
2022/05/31 11:36:51;;;;;;;5.40;1.88;;;;;;;24.55;32.40;101208.50;5093340;28;20044;-75
2022/05/31 11:39:43;;;;;;;12.25;2.03;;;;;;;24.80;32.00;101208.53;5075929;28;20028;-76
2022/05/31 11:42:32;;;;;;;2.33;1.17;;;;;;;24.75;31.50;101208.13;5093495;28;20389;-76
2022/05/31 11:45:15;;;;;;;3.38;1.05;;;;;;;24.43;31.50;101213.69;5093797;28;20024;-76
2022/05/31 11:48:22;;;;;;;4.00;1.13;;;;;;;24.15;31.66;101217.97;5074757;28;20055;-75
2022/05/31 11:51:08;;;;;;;4.20;1.42;;;;;;;24.00;32.37;101224.72;5053705;28;20029;-75
2022/05/31 11:53:43;;;;;;;4.47;1.00;;;;;;;23.93;32.57;101221.88;5072691;28;20029;-75
2022/05/31 11:56:28;;;;;;;13.10;2.55;;;;;;;24.14;32.72;101216.38;5054641;28;20039;-75
2022/05/31 11:59:09;;;;;;;3.67;1.17;;;;;;;24.45;32.81;101214.09;5072665;28;20035;-76
2022/05/31 12:01:38;;;;;;;1.42;0.90;;;;;;;24.80;32.06;101221.72;5054493;28;20536;-76
2022/05/31 12:04:07;;;;;;;4.70;1.13;;;;;;;25.34;31.21;101216.91;5073062;28;20031;-76
2022/05/31 12:06:32;;;;;;;3.03;0.85;;;;;;;25.69;30.33;101202.00;5073418;28;20032;-76
2022/05/31 12:09:07;;;;;;;5.50;1.05;;;;;;;25.89;29.92;101202.38;5055363;28;20025;-75
2022/05/31 12:11:38;;;;;;;5.30;1.50;;;;;;;25.93;30.27;101203.16;5073117;28;20029;-76